sensor_id;sensor_type;location;lat;lon;timestamp;temperature;humidity
7427;DHT22;3755;59.316;18.092;2022-11-20T00:00:34;0.40;99.90
7427;DHT22;3755;59.316;18.092;2022-11-20T00:03:01;0.40;99.90
7427;DHT22;3755;59.316;18.092;2022-11-20T00:05:32;0.40;99.90
7427;DHT22;3755;59.316;18.092;2022-11-20T00:08:13;0.40;99.90
7427;DHT22;3755;59.316;18.092;2022-11-20T00:10:54;0.40;99.90
7427;DHT22;3755;59.316;18.092;2022-11-20T00:19:57;0.30;99.90
7427;DHT22;3755;59.316;18.092;2022-11-20T00:22:32;0.30;99.90
7427;DHT22;3755;59.316;18.092;2022-11-20T00:25:01;0.30;99.90
7427;DHT22;3755;59.316;18.092;2022-11-20T00:27:29;0.30;99.90
7427;DHT22;3755;59.316;18.092;2022-11-20T00:29:57;0.20;99.90
7427;DHT22;3755;59.316;18.092;2022-11-20T00:32:41;0.30;99.90
7427;DHT22;3755;59.316;18.092;2022-11-20T00:36:02;0.30;99.90
7427;DHT22;3755;59.316;18.092;2022-11-20T00:38:33;0.30;99.90
7427;DHT22;3755;59.316;18.092;2022-11-20T00:41:06;0.20;99.90
7427;DHT22;3755;59.316;18.092;2022-11-20T00:43:35;0.20;99.90
7427;DHT22;3755;59.316;18.092;2022-11-20T00:46:17;0.20;99.90
7427;DHT22;3755;59.316;18.092;2022-11-20T00:49:01;0.20;99.90
7427;DHT22;3755;59.316;18.092;2022-11-20T00:51:45;0.20;99.90
7427;DHT22;3755;59.316;18.092;2022-11-20T00:54:28;0.50;99.90
7427;DHT22;3755;59.316;18.092;2022-11-20T00:56:59;0.90;99.90
7427;DHT22;3755;59.316;18.092;2022-11-20T00:59:29;0.20;99.90
7427;DHT22;3755;59.316;18.092;2022-11-20T01:02:06;0.20;99.90
7427;DHT22;3755;59.316;18.092;2022-11-20T01:04:34;0.20;99.90
7427;DHT22;3755;59.316;18.092;2022-11-20T01:07:04;0.20;99.90
7427;DHT22;3755;59.316;18.092;2022-11-20T01:09:33;0.10;99.90
7427;DHT22;3755;59.316;18.092;2022-11-20T01:12:00;0.10;99.90
7427;DHT22;3755;59.316;18.092;2022-11-20T01:14:27;0.10;99.90
7427;DHT22;3755;59.316;18.092;2022-11-20T01:16:55;0.10;99.90
7427;DHT22;3755;59.316;18.092;2022-11-20T01:19:23;0.20;99.90
7427;DHT22;3755;59.316;18.092;2022-11-20T01:21:52;0.10;99.90
7427;DHT22;3755;59.316;18.092;2022-11-20T01:24:21;0.60;99.90
7427;DHT22;3755;59.316;18.092;2022-11-20T01:26:51;0.70;99.90
7427;DHT22;3755;59.316;18.092;2022-11-20T01:29:20;0.10;99.90
7427;DHT22;3755;59.316;18.092;2022-11-20T01:31:49;0.10;99.90
7427;DHT22;3755;59.316;18.092;2022-11-20T01:34:19;0.10;99.90
7427;DHT22;3755;59.316;18.092;2022-11-20T01:36:48;0.20;99.90
7427;DHT22;3755;59.316;18.092;2022-11-20T01:39:17;0.20;99.90
7427;DHT22;3755;59.316;18.092;2022-11-20T01:41:50;0.30;99.90
7427;DHT22;3755;59.316;18.092;2022-11-20T01:44:49;0.10;99.90
7427;DHT22;3755;59.316;18.092;2022-11-20T01:47:40;0.10;99.90
7427;DHT22;3755;59.316;18.092;2022-11-20T01:50:14;0.10;99.90
7427;DHT22;3755;59.316;18.092;2022-11-20T01:52:47;0.10;99.90
7427;DHT22;3755;59.316;18.092;2022-11-20T01:55:28;0.30;99.90
7427;DHT22;3755;59.316;18.092;2022-11-20T01:58:04;0.20;99.90
7427;DHT22;3755;59.316;18.092;2022-11-20T02:00:45;0.20;99.90
7427;DHT22;3755;59.316;18.092;2022-11-20T02:03:16;0.20;99.90
7427;DHT22;3755;59.316;18.092;2022-11-20T02:05:55;0.10;99.90
7427;DHT22;3755;59.316;18.092;2022-11-20T02:08:24;0.10;99.90
7427;DHT22;3755;59.316;18.092;2022-11-20T02:10:52;0.10;99.90
7427;DHT22;3755;59.316;18.092;2022-11-20T02:13:22;0.10;99.90
7427;DHT22;3755;59.316;18.092;2022-11-20T02:16:13;0.10;99.90
7427;DHT22;3755;59.316;18.092;2022-11-20T02:18:41;0.20;99.90
7427;DHT22;3755;59.316;18.092;2022-11-20T02:21:18;0.10;99.90
7427;DHT22;3755;59.316;18.092;2022-11-20T02:24:03;0.10;99.90
7427;DHT22;3755;59.316;18.092;2022-11-20T02:26:34;0.20;99.90
7427;DHT22;3755;59.316;18.092;2022-11-20T02:29:02;0.10;99.90
7427;DHT22;3755;59.316;18.092;2022-11-20T02:31:40;0.10;99.90
7427;DHT22;3755;59.316;18.092;2022-11-20T02:34:07;0.20;99.90
7427;DHT22;3755;59.316;18.092;2022-11-20T02:36:36;0.10;99.90
7427;DHT22;3755;59.316;18.092;2022-11-20T02:39:09;0.10;99.90
7427;DHT22;3755;59.316;18.092;2022-11-20T02:41:41;0.10;99.90
7427;DHT22;3755;59.316;18.092;2022-11-20T02:44:09;0.20;99.90
7427;DHT22;3755;59.316;18.092;2022-11-20T02:46:38;0.10;99.90
7427;DHT22;3755;59.316;18.092;2022-11-20T02:49:06;0.10;99.90
7427;DHT22;3755;59.316;18.092;2022-11-20T02:51:34;0.10;99.90
7427;DHT22;3755;59.316;18.092;2022-11-20T02:54:02;0.10;99.90
7427;DHT22;3755;59.316;18.092;2022-11-20T02:56:31;0.10;99.90
7427;DHT22;3755;59.316;18.092;2022-11-20T02:59:04;0.10;99.90
7427;DHT22;3755;59.316;18.092;2022-11-20T03:01:31;0.10;99.90
7427;DHT22;3755;59.316;18.092;2022-11-20T03:03:58;0.10;99.90
7427;DHT22;3755;59.316;18.092;2022-11-20T03:06:26;0.10;99.90
7427;DHT22;3755;59.316;18.092;2022-11-20T03:08:53;0.10;99.90
7427;DHT22;3755;59.316;18.092;2022-11-20T03:11:22;0.10;99.90
7427;DHT22;3755;59.316;18.092;2022-11-20T03:13:51;0.30;99.90
7427;DHT22;3755;59.316;18.092;2022-11-20T03:16:21;0.10;99.90
7427;DHT22;3755;59.316;18.092;2022-11-20T03:18:52;0.10;99.90
7427;DHT22;3755;59.316;18.092;2022-11-20T03:21:20;0.10;99.90
7427;DHT22;3755;59.316;18.092;2022-11-20T03:23:48;0.00;99.90
7427;DHT22;3755;59.316;18.092;2022-11-20T03:26:25;0.00;99.90
7427;DHT22;3755;59.316;18.092;2022-11-20T03:28:56;0.20;99.90
7427;DHT22;3755;59.316;18.092;2022-11-20T03:31:25;0.00;99.90
7427;DHT22;3755;59.316;18.092;2022-11-20T03:33:55;0.00;99.90
7427;DHT22;3755;59.316;18.092;2022-11-20T03:36:22;0.10;99.90
7427;DHT22;3755;59.316;18.092;2022-11-20T03:38:50;0.10;99.90
7427;DHT22;3755;59.316;18.092;2022-11-20T03:41:19;0.10;99.90
7427;DHT22;3755;59.316;18.092;2022-11-20T03:43:48;0.10;99.90
7427;DHT22;3755;59.316;18.092;2022-11-20T03:46:17;0.10;99.90
7427;DHT22;3755;59.316;18.092;2022-11-20T03:48:44;0.10;99.90
7427;DHT22;3755;59.316;18.092;2022-11-20T03:51:13;0.10;99.90
7427;DHT22;3755;59.316;18.092;2022-11-20T03:53:43;0.10;99.90
7427;DHT22;3755;59.316;18.092;2022-11-20T03:56:12;0.10;99.90
7427;DHT22;3755;59.316;18.092;2022-11-20T03:58:40;0.10;99.90
7427;DHT22;3755;59.316;18.092;2022-11-20T04:01:09;0.10;99.90
7427;DHT22;3755;59.316;18.092;2022-11-20T04:03:41;0.20;99.90
7427;DHT22;3755;59.316;18.092;2022-11-20T04:06:12;0.20;99.90
7427;DHT22;3755;59.316;18.092;2022-11-20T04:08:39;0.20;99.90
7427;DHT22;3755;59.316;18.092;2022-11-20T04:11:11;0.20;99.90
7427;DHT22;3755;59.316;18.092;2022-11-20T04:13:39;0.10;99.90
7427;DHT22;3755;59.316;18.092;2022-11-20T04:16:07;0.10;99.90
7427;DHT22;3755;59.316;18.092;2022-11-20T04:18:36;0.10;99.90
7427;DHT22;3755;59.316;18.092;2022-11-20T04:21:05;0.10;99.90
7427;DHT22;3755;59.316;18.092;2022-11-20T04:23:33;0.90;99.90
7427;DHT22;3755;59.316;18.092;2022-11-20T04:26:01;0.10;99.90
7427;DHT22;3755;59.316;18.092;2022-11-20T04:28:29;0.10;99.90
7427;DHT22;3755;59.316;18.092;2022-11-20T04:31:02;0.10;99.90
7427;DHT22;3755;59.316;18.092;2022-11-20T04:33:30;0.20;99.90
7427;DHT22;3755;59.316;18.092;2022-11-20T04:36:01;0.10;99.90
7427;DHT22;3755;59.316;18.092;2022-11-20T04:38:44;0.20;99.90
7427;DHT22;3755;59.316;18.092;2022-11-20T04:41:16;0.20;99.90
7427;DHT22;3755;59.316;18.092;2022-11-20T04:43:59;0.10;99.90
7427;DHT22;3755;59.316;18.092;2022-11-20T04:46:42;0.30;99.90
7427;DHT22;3755;59.316;18.092;2022-11-20T04:49:12;0.10;99.90
7427;DHT22;3755;59.316;18.092;2022-11-20T04:51:40;0.20;99.90
7427;DHT22;3755;59.316;18.092;2022-11-20T04:54:11;0.10;99.90
7427;DHT22;3755;59.316;18.092;2022-11-20T04:56:43;0.10;99.90
7427;DHT22;3755;59.316;18.092;2022-11-20T04:59:10;0.10;99.90
7427;DHT22;3755;59.316;18.092;2022-11-20T05:01:40;0.20;99.90
7427;DHT22;3755;59.316;18.092;2022-11-20T05:04:07;0.20;99.90
7427;DHT22;3755;59.316;18.092;2022-11-20T05:06:35;0.20;99.90
7427;DHT22;3755;59.316;18.092;2022-11-20T05:09:19;0.20;99.90
7427;DHT22;3755;59.316;18.092;2022-11-20T05:11:46;0.20;99.90
7427;DHT22;3755;59.316;18.092;2022-11-20T05:14:13;0.80;99.90
7427;DHT22;3755;59.316;18.092;2022-11-20T05:16:41;0.20;99.90
7427;DHT22;3755;59.316;18.092;2022-11-20T05:19:09;0.20;99.90
7427;DHT22;3755;59.316;18.092;2022-11-20T05:21:37;0.20;99.90
7427;DHT22;3755;59.316;18.092;2022-11-20T05:24:06;0.20;99.90
7427;DHT22;3755;59.316;18.092;2022-11-20T05:26:37;0.20;99.90
7427;DHT22;3755;59.316;18.092;2022-11-20T05:29:20;0.20;99.90
7427;DHT22;3755;59.316;18.092;2022-11-20T05:31:47;0.30;99.90
7427;DHT22;3755;59.316;18.092;2022-11-20T05:34:23;0.30;99.90
7427;DHT22;3755;59.316;18.092;2022-11-20T05:36:51;0.30;99.90
7427;DHT22;3755;59.316;18.092;2022-11-20T05:39:21;0.30;99.90
7427;DHT22;3755;59.316;18.092;2022-11-20T05:41:56;0.30;99.90
7427;DHT22;3755;59.316;18.092;2022-11-20T05:44:36;0.30;99.90
7427;DHT22;3755;59.316;18.092;2022-11-20T05:47:04;0.30;99.90
7427;DHT22;3755;59.316;18.092;2022-11-20T05:49:32;0.30;99.90
7427;DHT22;3755;59.316;18.092;2022-11-20T05:52:00;0.30;99.90
7427;DHT22;3755;59.316;18.092;2022-11-20T05:54:28;0.30;99.90
7427;DHT22;3755;59.316;18.092;2022-11-20T05:57:00;0.30;99.90
7427;DHT22;3755;59.316;18.092;2022-11-20T05:59:28;0.40;99.90
7427;DHT22;3755;59.316;18.092;2022-11-20T06:01:56;0.30;99.90
7427;DHT22;3755;59.316;18.092;2022-11-20T06:04:27;0.30;99.90
7427;DHT22;3755;59.316;18.092;2022-11-20T06:06:55;0.30;99.90
7427;DHT22;3755;59.316;18.092;2022-11-20T06:09:27;0.30;99.90
7427;DHT22;3755;59.316;18.092;2022-11-20T06:11:55;0.30;99.90
7427;DHT22;3755;59.316;18.092;2022-11-20T06:14:24;0.20;99.90
7427;DHT22;3755;59.316;18.092;2022-11-20T06:16:52;0.30;99.90
7427;DHT22;3755;59.316;18.092;2022-11-20T06:19:20;0.30;99.90
7427;DHT22;3755;59.316;18.092;2022-11-20T06:21:47;0.20;99.90
7427;DHT22;3755;59.316;18.092;2022-11-20T06:24:17;0.20;99.90
7427;DHT22;3755;59.316;18.092;2022-11-20T06:26:48;0.30;99.90
7427;DHT22;3755;59.316;18.092;2022-11-20T06:29:16;0.30;99.90
7427;DHT22;3755;59.316;18.092;2022-11-20T06:31:46;0.30;99.90
7427;DHT22;3755;59.316;18.092;2022-11-20T06:34:15;0.30;99.90
7427;DHT22;3755;59.316;18.092;2022-11-20T06:37:00;0.20;99.90
7427;DHT22;3755;59.316;18.092;2022-11-20T06:39:30;0.30;99.90
7427;DHT22;3755;59.316;18.092;2022-11-20T06:41:59;0.30;99.90
7427;DHT22;3755;59.316;18.092;2022-11-20T06:44:26;0.20;99.90
7427;DHT22;3755;59.316;18.092;2022-11-20T06:47:08;0.20;99.90
7427;DHT22;3755;59.316;18.092;2022-11-20T06:49:36;0.30;99.90
7427;DHT22;3755;59.316;18.092;2022-11-20T06:52:08;0.30;99.90
7427;DHT22;3755;59.316;18.092;2022-11-20T06:54:35;0.20;99.90
7427;DHT22;3755;59.316;18.092;2022-11-20T06:57:03;0.20;99.90
7427;DHT22;3755;59.316;18.092;2022-11-20T06:59:31;0.20;99.90
7427;DHT22;3755;59.316;18.092;2022-11-20T07:01:59;0.20;99.90
7427;DHT22;3755;59.316;18.092;2022-11-20T07:04:42;0.30;99.90
7427;DHT22;3755;59.316;18.092;2022-11-20T07:07:12;0.20;99.90
7427;DHT22;3755;59.316;18.092;2022-11-20T07:09:40;0.20;99.90
7427;DHT22;3755;59.316;18.092;2022-11-20T07:12:08;0.20;99.90
7427;DHT22;3755;59.316;18.092;2022-11-20T07:14:35;0.30;99.90
7427;DHT22;3755;59.316;18.092;2022-11-20T07:17:02;0.30;99.90
7427;DHT22;3755;59.316;18.092;2022-11-20T07:19:33;0.50;99.90
7427;DHT22;3755;59.316;18.092;2022-11-20T07:22:05;0.30;99.90
7427;DHT22;3755;59.316;18.092;2022-11-20T07:24:38;0.30;99.90
7427;DHT22;3755;59.316;18.092;2022-11-20T07:27:06;0.30;99.90
7427;DHT22;3755;59.316;18.092;2022-11-20T07:29:33;0.30;99.90
7427;DHT22;3755;59.316;18.092;2022-11-20T07:32:01;0.30;99.90
7427;DHT22;3755;59.316;18.092;2022-11-20T07:34:28;0.40;99.90
7427;DHT22;3755;59.316;18.092;2022-11-20T07:36:56;0.40;99.90
7427;DHT22;3755;59.316;18.092;2022-11-20T07:39:24;0.40;99.90
7427;DHT22;3755;59.316;18.092;2022-11-20T07:41:52;0.40;99.90
7427;DHT22;3755;59.316;18.092;2022-11-20T07:44:22;0.50;99.90
7427;DHT22;3755;59.316;18.092;2022-11-20T07:46:49;0.40;99.90
7427;DHT22;3755;59.316;18.092;2022-11-20T07:49:16;0.40;99.90
7427;DHT22;3755;59.316;18.092;2022-11-20T07:51:46;0.50;99.90
7427;DHT22;3755;59.316;18.092;2022-11-20T07:54:13;0.40;99.90
7427;DHT22;3755;59.316;18.092;2022-11-20T07:56:45;0.50;99.90
7427;DHT22;3755;59.316;18.092;2022-11-20T07:59:14;0.50;99.90
7427;DHT22;3755;59.316;18.092;2022-11-20T08:01:42;0.50;99.90
7427;DHT22;3755;59.316;18.092;2022-11-20T08:04:11;0.50;99.90
7427;DHT22;3755;59.316;18.092;2022-11-20T08:06:40;0.50;99.90
7427;DHT22;3755;59.316;18.092;2022-11-20T08:09:08;0.50;99.90
7427;DHT22;3755;59.316;18.092;2022-11-20T08:11:48;0.50;99.90
7427;DHT22;3755;59.316;18.092;2022-11-20T08:14:33;0.60;99.90
7427;DHT22;3755;59.316;18.092;2022-11-20T08:17:01;0.60;99.90
7427;DHT22;3755;59.316;18.092;2022-11-20T08:19:43;0.60;99.90
7427;DHT22;3755;59.316;18.092;2022-11-20T08:22:10;0.60;99.90
7427;DHT22;3755;59.316;18.092;2022-11-20T08:24:41;0.60;99.90
7427;DHT22;3755;59.316;18.092;2022-11-20T08:27:10;0.60;99.90
7427;DHT22;3755;59.316;18.092;2022-11-20T08:29:52;0.60;99.90
7427;DHT22;3755;59.316;18.092;2022-11-20T08:32:20;0.60;99.90
7427;DHT22;3755;59.316;18.092;2022-11-20T08:35:06;0.70;99.90
7427;DHT22;3755;59.316;18.092;2022-11-20T08:37:36;0.70;99.90
7427;DHT22;3755;59.316;18.092;2022-11-20T08:40:19;0.70;99.90
7427;DHT22;3755;59.316;18.092;2022-11-20T08:43:13;0.60;99.90
7427;DHT22;3755;59.316;18.092;2022-11-20T08:45:57;0.70;99.90
7427;DHT22;3755;59.316;18.092;2022-11-20T08:48:38;0.70;99.90
7427;DHT22;3755;59.316;18.092;2022-11-20T08:51:31;0.70;99.90
7427;DHT22;3755;59.316;18.092;2022-11-20T08:54:13;0.70;99.90
7427;DHT22;3755;59.316;18.092;2022-11-20T08:57:02;0.60;99.90
7427;DHT22;3755;59.316;18.092;2022-11-20T09:35:18;0.50;99.90
7427;DHT22;3755;59.316;18.092;2022-11-20T09:38:04;0.50;99.90
7427;DHT22;3755;59.316;18.092;2022-11-20T09:40:49;0.60;99.90
7427;DHT22;3755;59.316;18.092;2022-11-20T09:43:43;0.60;99.90
7427;DHT22;3755;59.316;18.092;2022-11-20T09:46:21;0.60;99.90
7427;DHT22;3755;59.316;18.092;2022-11-20T09:49:19;0.90;99.90
7427;DHT22;3755;59.316;18.092;2022-11-20T09:52:26;1.00;99.90
7427;DHT22;3755;59.316;18.092;2022-11-20T09:55:02;0.60;99.90
7427;DHT22;3755;59.316;18.092;2022-11-20T09:57:46;0.70;99.90
7427;DHT22;3755;59.316;18.092;2022-11-20T10:00:24;0.70;99.90
7427;DHT22;3755;59.316;18.092;2022-11-20T10:03:13;0.70;99.90
7427;DHT22;3755;59.316;18.092;2022-11-20T10:05:54;0.70;99.90
7427;DHT22;3755;59.316;18.092;2022-11-20T10:08:48;0.80;99.90
7427;DHT22;3755;59.316;18.092;2022-11-20T10:11:41;0.90;99.90
7427;DHT22;3755;59.316;18.092;2022-11-20T10:14:30;0.80;99.90
7427;DHT22;3755;59.316;18.092;2022-11-20T10:17:05;0.90;99.90
7427;DHT22;3755;59.316;18.092;2022-11-20T10:19:50;0.80;99.90
7427;DHT22;3755;59.316;18.092;2022-11-20T10:22:33;0.80;99.90
7427;DHT22;3755;59.316;18.092;2022-11-20T10:25:18;0.80;99.90
7427;DHT22;3755;59.316;18.092;2022-11-20T10:28:12;0.70;99.90
7427;DHT22;3755;59.316;18.092;2022-11-20T10:30:50;0.80;99.90
7427;DHT22;3755;59.316;18.092;2022-11-20T10:33:33;0.70;99.90
7427;DHT22;3755;59.316;18.092;2022-11-20T10:36:22;0.70;99.90
7427;DHT22;3755;59.316;18.092;2022-11-20T10:39:10;0.70;99.90
7427;DHT22;3755;59.316;18.092;2022-11-20T10:42:07;0.70;99.90
7427;DHT22;3755;59.316;18.092;2022-11-20T10:44:52;0.60;99.90
7427;DHT22;3755;59.316;18.092;2022-11-20T10:47:35;0.60;99.90
7427;DHT22;3755;59.316;18.092;2022-11-20T10:50:20;0.60;99.90
7427;DHT22;3755;59.316;18.092;2022-11-20T10:52:59;0.60;99.90
7427;DHT22;3755;59.316;18.092;2022-11-20T10:55:39;0.50;99.90
7427;DHT22;3755;59.316;18.092;2022-11-20T10:58:26;1.20;99.90
7427;DHT22;3755;59.316;18.092;2022-11-20T11:01:16;0.50;99.90
7427;DHT22;3755;59.316;18.092;2022-11-20T11:03:54;0.60;99.90
7427;DHT22;3755;59.316;18.092;2022-11-20T11:06:25;0.60;99.90
7427;DHT22;3755;59.316;18.092;2022-11-20T11:09:02;0.60;99.90
7427;DHT22;3755;59.316;18.092;2022-11-20T11:11:46;0.60;99.90
7427;DHT22;3755;59.316;18.092;2022-11-20T11:14:16;0.60;99.90
7427;DHT22;3755;59.316;18.092;2022-11-20T11:16:49;0.60;99.90
7427;DHT22;3755;59.316;18.092;2022-11-20T11:22:42;0.70;99.90
7427;DHT22;3755;59.316;18.092;2022-11-20T11:25:26;0.70;99.90
7427;DHT22;3755;59.316;18.092;2022-11-20T11:33:25;0.70;99.90
7427;DHT22;3755;59.316;18.092;2022-11-20T11:36:17;0.70;99.90
7427;DHT22;3755;59.316;18.092;2022-11-20T11:39:02;0.70;99.90
7427;DHT22;3755;59.316;18.092;2022-11-20T11:41:44;0.70;99.90
7427;DHT22;3755;59.316;18.092;2022-11-20T11:44:18;0.70;99.90
7427;DHT22;3755;59.316;18.092;2022-11-20T11:47:05;0.70;99.90
7427;DHT22;3755;59.316;18.092;2022-11-20T11:49:48;0.70;99.90
7427;DHT22;3755;59.316;18.092;2022-11-20T11:52:24;0.70;99.90
7427;DHT22;3755;59.316;18.092;2022-11-20T11:55:00;0.70;99.90
7427;DHT22;3755;59.316;18.092;2022-11-20T11:57:37;0.90;99.90
7427;DHT22;3755;59.316;18.092;2022-11-20T12:00:22;0.70;99.90
7427;DHT22;3755;59.316;18.092;2022-11-20T12:03:00;0.70;99.90
7427;DHT22;3755;59.316;18.092;2022-11-20T12:05:43;0.60;99.90
7427;DHT22;3755;59.316;18.092;2022-11-20T12:08:17;0.60;99.90
7427;DHT22;3755;59.316;18.092;2022-11-20T12:10:52;0.60;99.90
7427;DHT22;3755;59.316;18.092;2022-11-20T12:13:30;0.60;99.90
7427;DHT22;3755;59.316;18.092;2022-11-20T12:16:14;0.60;99.90
7427;DHT22;3755;59.316;18.092;2022-11-20T12:18:43;0.70;99.90
7427;DHT22;3755;59.316;18.092;2022-11-20T12:21:19;0.80;99.90
7427;DHT22;3755;59.316;18.092;2022-11-20T12:24:04;0.60;99.90
7427;DHT22;3755;59.316;18.092;2022-11-20T12:26:46;0.60;99.90
7427;DHT22;3755;59.316;18.092;2022-11-20T12:29:24;0.70;99.90
7427;DHT22;3755;59.316;18.092;2022-11-20T12:35:30;0.60;99.90
7427;DHT22;3755;59.316;18.092;2022-11-20T12:38:14;0.60;99.90
7427;DHT22;3755;59.316;18.092;2022-11-20T12:40:59;0.60;99.90
7427;DHT22;3755;59.316;18.092;2022-11-20T12:43:31;0.60;99.90
7427;DHT22;3755;59.316;18.092;2022-11-20T12:46:23;0.60;99.90
7427;DHT22;3755;59.316;18.092;2022-11-20T12:49:08;0.60;99.90
7427;DHT22;3755;59.316;18.092;2022-11-20T12:51:48;0.70;99.90
7427;DHT22;3755;59.316;18.092;2022-11-20T12:54:50;0.70;99.90
7427;DHT22;3755;59.316;18.092;2022-11-20T12:57:36;0.70;99.90
7427;DHT22;3755;59.316;18.092;2022-11-20T13:00:14;0.70;99.90
7427;DHT22;3755;59.316;18.092;2022-11-20T13:03:09;0.70;99.90
7427;DHT22;3755;59.316;18.092;2022-11-20T13:05:50;0.70;99.90
7427;DHT22;3755;59.316;18.092;2022-11-20T13:08:22;0.70;99.90
7427;DHT22;3755;59.316;18.092;2022-11-20T13:10:56;0.80;99.90
7427;DHT22;3755;59.316;18.092;2022-11-20T13:13:33;0.80;99.90
7427;DHT22;3755;59.316;18.092;2022-11-20T13:16:08;0.80;99.90
7427;DHT22;3755;59.316;18.092;2022-11-20T13:18:41;0.80;99.90
7427;DHT22;3755;59.316;18.092;2022-11-20T13:21:16;0.90;99.90
7427;DHT22;3755;59.316;18.092;2022-11-20T13:23:45;0.90;99.90
7427;DHT22;3755;59.316;18.092;2022-11-20T13:26:29;0.90;99.90
7427;DHT22;3755;59.316;18.092;2022-11-20T13:29:03;0.90;99.90
7427;DHT22;3755;59.316;18.092;2022-11-20T13:31:39;0.80;99.90
7427;DHT22;3755;59.316;18.092;2022-11-20T13:34:26;0.70;99.90
7427;DHT22;3755;59.316;18.092;2022-11-20T13:36:57;0.70;99.90
7427;DHT22;3755;59.316;18.092;2022-11-20T13:39:26;0.80;99.90
7427;DHT22;3755;59.316;18.092;2022-11-20T13:41:57;0.70;99.90
7427;DHT22;3755;59.316;18.092;2022-11-20T13:44:32;0.80;99.90
7427;DHT22;3755;59.316;18.092;2022-11-20T13:47:01;0.80;99.90
7427;DHT22;3755;59.316;18.092;2022-11-20T13:49:34;0.80;99.90
7427;DHT22;3755;59.316;18.092;2022-11-20T13:52:35;0.70;99.90
7427;DHT22;3755;59.316;18.092;2022-11-20T13:55:14;0.70;99.90
7427;DHT22;3755;59.316;18.092;2022-11-20T13:58:02;0.70;99.90
7427;DHT22;3755;59.316;18.092;2022-11-20T14:00:43;0.60;99.90
7427;DHT22;3755;59.316;18.092;2022-11-20T14:03:18;0.60;99.90
7427;DHT22;3755;59.316;18.092;2022-11-20T14:05:51;0.60;99.90
7427;DHT22;3755;59.316;18.092;2022-11-20T14:08:27;0.60;99.90
7427;DHT22;3755;59.316;18.092;2022-11-20T14:11:05;0.50;99.90
7427;DHT22;3755;59.316;18.092;2022-11-20T14:13:35;0.60;99.90
7427;DHT22;3755;59.316;18.092;2022-11-20T14:16:02;0.50;99.90
7427;DHT22;3755;59.316;18.092;2022-11-20T14:18:30;0.50;99.90
7427;DHT22;3755;59.316;18.092;2022-11-20T14:21:02;0.50;99.90
7427;DHT22;3755;59.316;18.092;2022-11-20T14:23:32;0.50;99.90
7427;DHT22;3755;59.316;18.092;2022-11-20T14:26:00;0.40;99.90
7427;DHT22;3755;59.316;18.092;2022-11-20T14:28:30;0.50;99.90
7427;DHT22;3755;59.316;18.092;2022-11-20T14:31:01;0.50;99.90
7427;DHT22;3755;59.316;18.092;2022-11-20T14:33:34;0.40;99.90
7427;DHT22;3755;59.316;18.092;2022-11-20T14:36:05;0.30;99.90
7427;DHT22;3755;59.316;18.092;2022-11-20T14:38:42;0.30;99.90
7427;DHT22;3755;59.316;18.092;2022-11-20T14:41:17;0.30;99.90
7427;DHT22;3755;59.316;18.092;2022-11-20T14:43:49;0.40;99.90
7427;DHT22;3755;59.316;18.092;2022-11-20T14:46:19;0.30;99.90
7427;DHT22;3755;59.316;18.092;2022-11-20T14:48:49;0.30;99.90
7427;DHT22;3755;59.316;18.092;2022-11-20T14:51:28;0.30;99.90
7427;DHT22;3755;59.316;18.092;2022-11-20T14:54:12;0.20;99.90
7427;DHT22;3755;59.316;18.092;2022-11-20T14:56:40;0.20;99.90
7427;DHT22;3755;59.316;18.092;2022-11-20T14:59:08;0.20;99.90
7427;DHT22;3755;59.316;18.092;2022-11-20T15:01:37;0.20;99.90
7427;DHT22;3755;59.316;18.092;2022-11-20T15:04:08;0.20;99.90
7427;DHT22;3755;59.316;18.092;2022-11-20T15:06:38;0.20;99.90
7427;DHT22;3755;59.316;18.092;2022-11-20T15:09:19;0.20;99.90
7427;DHT22;3755;59.316;18.092;2022-11-20T15:11:54;0.30;99.90
7427;DHT22;3755;59.316;18.092;2022-11-20T15:14:22;0.30;99.90
7427;DHT22;3755;59.316;18.092;2022-11-20T15:16:52;0.30;99.90
7427;DHT22;3755;59.316;18.092;2022-11-20T15:19:27;0.30;99.90
7427;DHT22;3755;59.316;18.092;2022-11-20T15:21:55;0.30;99.90
7427;DHT22;3755;59.316;18.092;2022-11-20T15:24:23;0.30;99.90
7427;DHT22;3755;59.316;18.092;2022-11-20T15:26:52;0.30;99.90
7427;DHT22;3755;59.316;18.092;2022-11-20T15:29:33;0.40;99.90
7427;DHT22;3755;59.316;18.092;2022-11-20T15:32:02;0.40;99.90
7427;DHT22;3755;59.316;18.092;2022-11-20T15:34:34;0.40;99.90
7427;DHT22;3755;59.316;18.092;2022-11-20T15:37:02;0.40;99.90
7427;DHT22;3755;59.316;18.092;2022-11-20T15:39:33;0.40;99.90
7427;DHT22;3755;59.316;18.092;2022-11-20T15:42:02;0.40;99.90
7427;DHT22;3755;59.316;18.092;2022-11-20T15:44:29;0.40;99.90
7427;DHT22;3755;59.316;18.092;2022-11-20T15:46:57;0.50;99.90
7427;DHT22;3755;59.316;18.092;2022-11-20T15:49:26;0.50;99.90
7427;DHT22;3755;59.316;18.092;2022-11-20T15:51:55;0.50;99.90
7427;DHT22;3755;59.316;18.092;2022-11-20T15:54:24;0.70;99.90
7427;DHT22;3755;59.316;18.092;2022-11-20T15:56:52;0.50;99.90
7427;DHT22;3755;59.316;18.092;2022-11-20T15:59:19;0.40;99.90
7427;DHT22;3755;59.316;18.092;2022-11-20T16:01:47;0.50;99.90
7427;DHT22;3755;59.316;18.092;2022-11-20T16:04:16;0.70;99.90
7427;DHT22;3755;59.316;18.092;2022-11-20T16:06:45;0.40;99.90
7427;DHT22;3755;59.316;18.092;2022-11-20T16:09:17;0.40;99.90
7427;DHT22;3755;59.316;18.092;2022-11-20T16:11:47;0.40;99.90
7427;DHT22;3755;59.316;18.092;2022-11-20T16:14:14;0.40;99.90
7427;DHT22;3755;59.316;18.092;2022-11-20T16:16:59;0.40;99.90
7427;DHT22;3755;59.316;18.092;2022-11-20T16:19:28;0.50;99.90
7427;DHT22;3755;59.316;18.092;2022-11-20T16:22:12;0.40;99.90
7427;DHT22;3755;59.316;18.092;2022-11-20T16:24:43;0.90;99.90
7427;DHT22;3755;59.316;18.092;2022-11-20T16:27:10;0.50;99.90
7427;DHT22;3755;59.316;18.092;2022-11-20T16:29:38;0.50;99.90
7427;DHT22;3755;59.316;18.092;2022-11-20T16:32:09;0.60;99.90
7427;DHT22;3755;59.316;18.092;2022-11-20T16:34:37;0.60;99.90
7427;DHT22;3755;59.316;18.092;2022-11-20T16:37:05;0.60;99.90
7427;DHT22;3755;59.316;18.092;2022-11-20T16:39:34;0.60;99.90
7427;DHT22;3755;59.316;18.092;2022-11-20T16:42:03;0.60;99.90
7427;DHT22;3755;59.316;18.092;2022-11-20T16:44:31;0.70;99.90
7427;DHT22;3755;59.316;18.092;2022-11-20T16:46:59;0.70;99.90
7427;DHT22;3755;59.316;18.092;2022-11-20T16:49:27;0.70;99.90
7427;DHT22;3755;59.316;18.092;2022-11-20T16:51:57;0.70;99.90
7427;DHT22;3755;59.316;18.092;2022-11-20T16:54:24;0.70;99.90
7427;DHT22;3755;59.316;18.092;2022-11-20T16:57:07;0.70;99.90
7427;DHT22;3755;59.316;18.092;2022-11-20T16:59:34;0.70;99.90
7427;DHT22;3755;59.316;18.092;2022-11-20T17:02:04;0.70;99.90
7427;DHT22;3755;59.316;18.092;2022-11-20T17:04:38;0.70;99.90
7427;DHT22;3755;59.316;18.092;2022-11-20T17:07:21;0.70;99.90
7427;DHT22;3755;59.316;18.092;2022-11-20T17:09:48;0.70;99.90
7427;DHT22;3755;59.316;18.092;2022-11-20T17:12:18;0.70;99.90
7427;DHT22;3755;59.316;18.092;2022-11-20T17:14:45;0.70;99.90
7427;DHT22;3755;59.316;18.092;2022-11-20T17:17:13;0.80;99.90
7427;DHT22;3755;59.316;18.092;2022-11-20T17:19:40;0.80;99.90
7427;DHT22;3755;59.316;18.092;2022-11-20T17:22:08;0.70;99.90
7427;DHT22;3755;59.316;18.092;2022-11-20T17:24:35;0.70;99.90
7427;DHT22;3755;59.316;18.092;2022-11-20T17:27:03;0.70;99.90
7427;DHT22;3755;59.316;18.092;2022-11-20T17:29:33;0.60;99.90
7427;DHT22;3755;59.316;18.092;2022-11-20T17:32:00;0.30;99.90
7427;DHT22;3755;59.316;18.092;2022-11-20T17:34:27;0.50;99.90
7427;DHT22;3755;59.316;18.092;2022-11-20T17:36:54;0.50;99.90
7427;DHT22;3755;59.316;18.092;2022-11-20T17:39:21;0.50;99.90